createdAt,value
2023-04-28T00:00:46.656Z,96755.47
2023-04-28T00:03:13.045Z,96754.38
2023-04-28T00:05:39.387Z,96758.41
2023-04-28T00:08:05.668Z,96754.09
2023-04-28T00:10:31.960Z,96753.00
2023-04-28T00:12:58.209Z,96754.31
2023-04-28T00:15:24.485Z,96754.59
2023-04-28T00:17:50.792Z,96764.31
2023-04-28T00:20:17.236Z,96763.50
2023-04-28T00:22:43.480Z,96758.41
2023-04-28T00:25:09.754Z,96759.47
2023-04-28T00:27:36.044Z,96762.13
2023-04-28T00:30:02.349Z,96762.41
2023-04-28T00:32:28.701Z,96758.69
2023-04-28T00:34:55.015Z,96759.25
2023-04-28T00:37:21.289Z,96755.47
2023-04-28T00:39:47.566Z,96758.16
2023-04-28T00:42:13.829Z,96754.66
2023-04-28T00:44:40.128Z,96746.84
2023-04-28T00:47:06.391Z,96746.31
2023-04-28T00:49:32.651Z,96744.72
2023-04-28T00:51:58.899Z,96734.50
2023-04-28T00:54:25.179Z,96728.28
2023-04-28T00:56:51.466Z,96724.78
2023-04-28T00:59:17.781Z,96725.59
2023-04-28T01:01:44.118Z,96716.19
2023-04-28T01:04:10.800Z,96733.97
2023-04-28T01:06:37.130Z,96740.97
2023-04-28T01:09:03.408Z,96738.00
2023-04-28T01:11:29.683Z,96742.34
2023-04-28T01:13:55.956Z,96743.44
2023-04-28T01:16:22.233Z,96737.75
2023-04-28T01:18:48.554Z,96747.22
2023-04-28T01:21:14.812Z,96738.31
2023-04-28T01:23:41.070Z,96745.38
2023-04-28T01:26:07.325Z,96742.91
2023-04-28T01:28:33.613Z,96735.66
2023-04-28T01:30:59.870Z,96727.28
2023-04-28T01:33:26.139Z,96729.44
2023-04-28T01:35:52.392Z,96727.56
2023-04-28T01:38:18.637Z,96720.53
2023-04-28T01:40:44.913Z,96715.94
2023-04-28T01:43:11.163Z,96725.41
2023-04-28T01:45:37.418Z,96730.22
2023-04-28T01:48:03.759Z,96734.03
2023-04-28T01:50:30.023Z,96735.09
2023-04-28T01:52:56.289Z,96735.91
2023-04-28T01:55:22.536Z,96727.81
2023-04-28T01:57:48.773Z,96740.78
2023-04-28T02:00:15.037Z,96728.63
2023-04-28T02:02:41.381Z,96732.97
2023-04-28T02:05:07.748Z,96719.47
2023-04-28T02:07:34.031Z,96727.56
2023-04-28T02:10:00.319Z,96715.72
2023-04-28T02:12:26.589Z,96723.25
2023-04-28T02:14:52.832Z,96732.69
2023-04-28T02:17:19.105Z,96731.88
2023-04-28T02:19:45.358Z,96730.00
2023-04-28T02:22:11.741Z,96740.78
2023-04-28T02:24:38.051Z,96746.44
2023-04-28T02:27:04.311Z,96742.66
2023-04-28T02:29:30.556Z,96738.88
2023-04-28T02:31:56.873Z,96747.25
2023-04-28T02:34:23.148Z,96746.72
2023-04-28T02:36:49.413Z,96730.78
2023-04-28T02:39:15.653Z,96735.66
2023-04-28T02:41:41.953Z,96735.38
2023-04-28T02:44:08.213Z,96736.47
2023-04-28T02:46:34.562Z,96736.47
2023-04-28T02:49:00.866Z,96741.31
2023-04-28T02:51:27.130Z,96750.78
2023-04-28T02:53:53.401Z,96754.00
2023-04-28T02:56:19.678Z,96754.78
2023-04-28T02:58:45.943Z,96751.84
2023-04-28T03:01:12.225Z,96744.28
2023-04-28T03:03:38.687Z,96753.97
2023-04-28T03:06:05.090Z,96754.78
2023-04-28T03:08:31.357Z,96758.28
2023-04-28T03:10:57.633Z,96754.50
2023-04-28T03:13:23.922Z,96743.16
2023-04-28T03:15:50.186Z,96751.25
2023-04-28T03:18:16.451Z,96753.38
2023-04-28T03:20:42.693Z,96749.59
2023-04-28T03:23:08.948Z,96757.41
2023-04-28T03:25:35.221Z,96757.91
2023-04-28T03:28:01.505Z,96751.72
2023-04-28T03:30:27.839Z,96755.50
2023-04-28T03:32:54.154Z,96748.22
2023-04-28T03:35:20.432Z,96754.19
2023-04-28T03:37:46.707Z,96742.31
2023-04-28T03:40:13.005Z,96737.75
2023-04-28T03:42:39.355Z,96743.66
2023-04-28T03:45:05.620Z,96742.88
2023-04-28T03:47:31.886Z,96736.16
2023-04-28T03:49:58.173Z,96733.16
2023-04-28T03:52:24.427Z,96735.59
2023-04-28T03:54:50.688Z,96725.31
2023-04-28T03:57:16.980Z,96716.13
2023-04-28T03:59:43.230Z,96725.59
2023-04-28T04:02:09.499Z,96730.72
2023-04-28T04:04:35.984Z,96733.97
2023-04-28T04:07:02.336Z,96731.56
2023-04-28T04:09:28.639Z,96733.16
2023-04-28T04:11:54.940Z,96735.59
2023-04-28T04:14:21.196Z,96732.34
2023-04-28T04:16:47.487Z,96734.53
2023-04-28T04:19:14.085Z,96719.97
2023-04-28T04:21:40.350Z,96724.56
2023-04-28T04:24:06.628Z,96729.38
2023-04-28T04:26:32.884Z,96725.59
2023-04-28T04:28:59.143Z,96724.50
2023-04-28T04:31:25.416Z,96727.19
2023-04-28T04:33:51.729Z,96732.31
2023-04-28T04:36:18.022Z,96731.75
2023-04-28T04:38:44.298Z,96731.22
2023-04-28T04:41:10.564Z,96733.63
2023-04-28T04:43:36.818Z,96742.81
2023-04-28T04:46:03.102Z,96739.66
2023-04-28T04:48:29.399Z,96742.88
2023-04-28T04:50:55.672Z,96743.94
2023-04-28T04:53:21.978Z,96752.66
2023-04-28T04:55:48.250Z,96747.78
2023-04-28T04:58:14.526Z,96749.41
2023-04-28T05:00:40.823Z,96764.22
2023-04-28T05:03:07.272Z,96762.88
2023-04-28T05:05:33.601Z,96755.31
2023-04-28T05:07:59.935Z,96765.00
2023-04-28T05:10:26.190Z,96758.81
2023-04-28T05:12:52.481Z,96758.53
2023-04-28T05:15:18.751Z,96756.13
2023-04-28T05:17:45.078Z,96757.47
2023-04-28T05:20:12.895Z,96756.91
2023-04-28T05:22:39.293Z,96756.13
2023-04-28T05:25:05.568Z,96763.63
2023-04-28T05:27:31.845Z,96769.84
2023-04-28T05:29:58.100Z,96771.44
2023-04-28T05:32:24.468Z,96759.28
2023-04-28T05:34:50.772Z,96758.44
2023-04-28T05:37:17.036Z,96756.50
2023-04-28T05:39:43.300Z,96755.13
2023-04-28T05:42:09.565Z,96758.59
2023-04-28T05:44:35.827Z,96768.28
2023-04-28T05:47:02.129Z,96770.94
2023-04-28T05:49:28.436Z,96765.25
2023-04-28T05:51:54.685Z,96755.84
2023-04-28T05:54:20.960Z,96759.56
2023-04-28T05:56:47.244Z,96763.88
2023-04-28T05:59:13.548Z,96764.69
2023-04-28T06:01:39.889Z,96777.63
2023-04-28T06:04:06.260Z,96781.63
2023-04-28T06:06:32.694Z,96777.56
2023-04-28T06:08:58.960Z,96774.59
2023-04-28T06:11:25.230Z,96768.63
2023-04-28T06:13:51.525Z,96764.25
2023-04-28T06:16:17.931Z,96778.78
2023-04-28T06:18:44.254Z,96781.16
2023-04-28T06:21:10.536Z,96781.91
2023-04-28T06:23:36.820Z,96777.06
2023-04-28T06:26:03.065Z,96772.72
2023-04-28T06:28:29.333Z,96772.06
2023-04-28T06:30:55.683Z,96769.44
2023-04-28T06:33:21.966Z,96764.59
2023-04-28T06:35:48.230Z,96770.00
2023-04-28T06:38:14.484Z,96770.81
2023-04-28T06:40:40.758Z,96778.06
2023-04-28T06:43:07.020Z,96782.88
2023-04-28T06:45:33.304Z,96792.81
2023-04-28T06:47:59.595Z,96795.22
2023-04-28T06:50:25.975Z,96803.81
2023-04-28T06:52:52.252Z,96794.88
2023-04-28T06:55:18.518Z,96795.38
2023-04-28T06:57:44.844Z,96797.22
2023-04-28T07:00:11.145Z,96789.91
2023-04-28T07:02:37.547Z,96794.34
2023-04-28T07:05:04.033Z,96795.47
2023-04-28T07:07:30.325Z,96795.28
2023-04-28T07:09:56.593Z,96794.78
2023-04-28T07:12:22.856Z,96780.63
2023-04-28T07:14:49.131Z,96786.31
2023-04-28T07:17:15.404Z,96796.00
2023-04-28T07:19:41.664Z,96801.13
2023-04-28T07:22:07.933Z,96800.50
2023-04-28T07:24:34.316Z,96809.63
2023-04-28T07:27:00.591Z,96811.25
2023-04-28T07:29:26.855Z,96813.31
2023-04-28T07:31:53.201Z,96815.72
2023-04-28T07:34:19.558Z,96812.78
2023-04-28T07:36:45.800Z,96797.03
2023-04-28T07:39:12.064Z,96802.44
2023-04-28T07:41:38.503Z,96801.78
2023-04-28T07:44:04.930Z,96803.91
2023-04-28T07:46:31.289Z,96806.56
2023-04-28T07:48:57.675Z,96807.66
2023-04-28T07:51:23.957Z,96810.53
2023-04-28T07:53:50.219Z,96814.78
2023-04-28T07:56:16.505Z,96805.06
2023-04-28T07:58:42.749Z,96803.91
2023-04-28T08:01:09.006Z,96813.41
2023-04-28T08:03:35.432Z,96817.28
2023-04-28T08:06:02.134Z,96814.34
2023-04-28T08:08:28.519Z,96825.38
2023-04-28T08:10:54.839Z,96826.63
2023-04-28T08:13:21.126Z,96833.66
2023-04-28T08:15:47.396Z,96838.69
2023-04-28T08:18:13.727Z,96837.53
2023-04-28T08:20:40.020Z,96830.00
2023-04-28T08:23:06.279Z,96823.94
2023-04-28T08:25:32.586Z,96828.25
2023-04-28T08:27:58.845Z,96832.88
2023-04-28T08:30:25.469Z,96829.13
2023-04-28T08:32:51.802Z,96830.53
2023-04-28T08:35:18.272Z,96829.66
2023-04-28T08:37:44.529Z,96825.47
2023-04-28T08:40:10.808Z,96830.53
2023-04-28T08:42:37.198Z,96829.09
2023-04-28T08:45:03.470Z,96836.56
2023-04-28T08:47:29.785Z,96828.88
2023-04-28T08:49:56.080Z,96833.91
2023-04-28T08:52:22.325Z,96837.25
2023-04-28T08:54:48.630Z,96838.88
2023-04-28T08:57:14.904Z,96829.88
2023-04-28T08:59:41.223Z,96828.97
2023-04-28T09:02:07.528Z,96821.88
2023-04-28T09:04:33.960Z,96824.72
2023-04-28T09:07:00.336Z,96827.13
2023-04-28T09:09:26.615Z,96828.72
2023-04-28T09:11:52.897Z,96824.03
2023-04-28T09:14:19.322Z,96807.00
2023-04-28T09:16:45.835Z,96821.34
2023-04-28T09:19:12.212Z,96818.34
2023-04-28T09:21:38.472Z,96824.00
2023-04-28T09:24:04.781Z,96824.28
2023-04-28T09:26:31.246Z,96817.84
2023-04-28T09:28:57.547Z,96822.53
2023-04-28T09:31:23.850Z,96828.38
2023-04-28T09:33:50.121Z,96835.69
2023-04-28T09:36:16.395Z,96842.41
2023-04-28T09:38:42.665Z,96849.19
2023-04-28T09:41:08.950Z,96831.59
2023-04-28T09:43:35.246Z,96833.78
2023-04-28T09:46:01.638Z,96828.66
2023-04-28T09:48:28.020Z,96835.63
2023-04-28T09:50:54.295Z,96828.72
2023-04-28T09:53:20.577Z,96834.56
2023-04-28T09:55:46.828Z,96811.78
2023-04-28T09:58:13.089Z,96803.84
2023-04-28T10:00:39.347Z,96802.47
2023-04-28T10:03:05.755Z,96798.09
2023-04-28T10:05:32.299Z,96798.91
2023-04-28T10:07:58.755Z,96802.00
2023-04-28T10:10:25.037Z,96806.22
2023-04-28T10:12:51.369Z,96819.03
2023-04-28T10:15:17.646Z,96823.03
2023-04-28T10:17:43.968Z,96805.03
2023-04-28T10:20:10.230Z,96811.59
2023-04-28T10:22:36.504Z,96799.41
2023-04-28T10:25:02.802Z,96801.31
2023-04-28T10:27:29.081Z,96801.09
2023-04-28T10:29:55.342Z,96807.34
2023-04-28T10:32:21.682Z,96782.91
2023-04-28T10:34:48.004Z,96789.25
2023-04-28T10:37:14.269Z,96784.94
2023-04-28T10:39:40.571Z,96806.13
2023-04-28T10:42:06.831Z,96786.41
2023-04-28T10:44:33.105Z,96773.78
2023-04-28T10:46:59.585Z,96783.72
2023-04-28T10:49:25.995Z,96781.47
2023-04-28T10:51:52.266Z,96776.66
2023-04-28T10:54:18.528Z,96778.00
2023-04-28T10:56:44.791Z,96777.75
2023-04-28T10:59:11.049Z,96770.38
2023-04-28T11:01:37.344Z,96774.56
2023-04-28T11:04:03.719Z,96770.88
2023-04-28T11:06:30.380Z,96787.75
2023-04-28T11:08:56.675Z,96779.06
2023-04-28T11:11:22.958Z,96780.44
2023-04-28T11:13:49.238Z,96778.78
2023-04-28T11:16:15.553Z,96782.16
2023-04-28T11:18:41.866Z,96781.66
2023-04-28T11:21:08.145Z,96782.16
2023-04-28T11:23:34.417Z,96763.53
2023-04-28T11:26:00.724Z,96751.66
2023-04-28T11:28:27.002Z,96745.50
2023-04-28T11:30:54.258Z,96748.09
2023-04-28T11:33:20.598Z,96752.91
2023-04-28T11:35:46.909Z,96755.97
2023-04-28T11:38:13.207Z,96758.13
2023-04-28T11:40:39.455Z,96748.47
2023-04-28T11:43:05.747Z,96752.41
2023-04-28T11:45:32.058Z,96749.88
2023-04-28T11:47:58.459Z,96748.72
2023-04-28T11:50:24.761Z,96750.16
2023-04-28T11:52:53.158Z,96751.75
2023-04-28T11:55:20.177Z,96754.16
2023-04-28T11:57:46.507Z,96747.44
2023-04-28T12:00:12.786Z,96743.78
2023-04-28T12:02:39.163Z,96735.06
2023-04-28T12:05:05.660Z,96729.31
2023-04-28T12:07:31.986Z,96741.81
2023-04-28T12:09:58.255Z,96742.94
2023-04-28T12:14:52.578Z,96734.28
2023-04-28T12:17:18.869Z,96733.00
2023-04-28T12:19:45.164Z,96722.28
2023-04-28T12:22:11.454Z,96722.63
2023-04-28T12:24:37.748Z,96732.41
2023-04-28T12:27:04.001Z,96737.19
2023-04-28T12:29:30.280Z,96742.63
2023-04-28T12:31:56.573Z,96734.44
2023-04-28T12:34:22.852Z,96728.00
2023-04-28T12:36:49.120Z,96733.63
2023-04-28T12:39:15.662Z,96719.91
2023-04-28T12:41:41.934Z,96726.59
2023-04-28T12:44:08.221Z,96730.88
2023-04-28T12:46:34.570Z,96728.50
2023-04-28T12:49:01.121Z,96723.88
2023-04-28T12:51:27.461Z,96719.09
2023-04-28T12:53:53.730Z,96727.59
2023-04-28T12:56:20.011Z,96720.88
2023-04-28T12:58:46.284Z,96715.16
2023-04-28T13:01:12.589Z,96725.59
2023-04-28T13:03:39.931Z,96715.69
2023-04-28T13:06:06.343Z,96712.53
2023-04-28T13:08:32.610Z,96710.50
2023-04-28T13:10:59.352Z,96715.16
2023-04-28T13:13:26.441Z,96709.41
2023-04-28T13:15:52.761Z,96709.88
2023-04-28T13:18:19.073Z,96699.31
2023-04-28T13:20:45.374Z,96703.00
2023-04-28T13:23:11.677Z,96693.09
2023-04-28T13:25:38.079Z,96696.28
2023-04-28T13:28:04.369Z,96688.75
2023-04-28T13:30:30.744Z,96686.19
2023-04-28T13:32:57.556Z,96680.56
2023-04-28T13:35:23.985Z,96687.59
2023-04-28T13:37:50.250Z,96679.44
2023-04-28T13:40:16.505Z,96679.56
2023-04-28T13:42:42.806Z,96674.44
2023-04-28T13:45:09.062Z,96668.50
2023-04-28T13:47:35.332Z,96676.50
2023-04-28T13:50:01.674Z,96677.75
2023-04-28T13:52:27.937Z,96671.03
2023-04-28T13:54:54.182Z,96661.94
2023-04-28T13:57:20.473Z,96651.22
2023-04-28T13:59:46.921Z,96658.59
2023-04-28T14:02:13.236Z,96647.84
2023-04-28T14:04:39.700Z,96654.56
2023-04-28T14:07:06.134Z,96659.06
2023-04-28T14:09:32.417Z,96653.47
2023-04-28T14:11:58.695Z,96658.47
2023-04-28T14:14:24.968Z,96655.75
2023-04-28T14:16:52.319Z,96638.75
2023-04-28T14:19:18.649Z,96640.03
2023-04-28T14:21:44.950Z,96642.72
2023-04-28T14:24:11.200Z,96644.50
2023-04-28T14:26:37.457Z,96648.88
2023-04-28T14:29:03.717Z,96638.16
2023-04-28T14:31:30.063Z,96640.41
2023-04-28T14:33:56.399Z,96636.72
2023-04-28T14:36:22.651Z,96627.13
2023-04-28T14:38:48.948Z,96630.16
2023-04-28T14:41:15.208Z,96630.94
2023-04-28T14:43:41.476Z,96630.94
2023-04-28T14:46:07.849Z,96639.28
2023-04-28T14:48:34.123Z,96634.94
2023-04-28T14:51:00.375Z,96639.44
2023-04-28T14:53:26.665Z,96637.53
2023-04-28T14:55:53.708Z,96633.84
2023-04-28T14:58:20.907Z,96624.38
2023-04-28T15:00:47.165Z,96620.53
2023-04-28T15:03:13.655Z,96617.66
2023-04-28T15:05:40.073Z,96622.78
2023-04-28T15:08:06.329Z,96627.75
2023-04-28T15:10:32.604Z,96628.22
2023-04-28T15:12:58.865Z,96625.81
2023-04-28T15:15:25.226Z,96632.25
2023-04-28T15:17:51.493Z,96634.16
2023-04-28T15:20:17.786Z,96630.78
2023-04-28T15:22:44.044Z,96629.34
2023-04-28T15:25:10.323Z,96622.44
2023-04-28T15:27:36.631Z,96628.97
2023-04-28T15:30:02.913Z,96626.97
2023-04-28T15:32:30.397Z,96624.41
2023-04-28T15:34:57.050Z,96621.75
2023-04-28T15:37:23.332Z,96622.16
2023-04-28T15:39:49.594Z,96613.78
2023-04-28T15:42:15.862Z,96620.28
2023-04-28T15:44:42.123Z,96615.81
2023-04-28T15:47:08.404Z,96618.56
2023-04-28T15:49:34.647Z,96618.03
2023-04-28T15:52:00.927Z,96623.53
2023-04-28T15:54:27.208Z,96614.22
2023-04-28T15:56:53.477Z,96612.16
2023-04-28T15:59:19.730Z,96606.00
2023-04-28T16:01:45.999Z,96607.31
2023-04-28T16:04:12.460Z,96608.25
2023-04-28T16:06:38.809Z,96610.38
2023-04-28T16:09:05.076Z,96604.97
2023-04-28T16:11:31.367Z,96598.88
2023-04-28T16:13:57.730Z,96594.22
2023-04-28T16:16:24.112Z,96596.53
2023-04-28T16:18:50.445Z,96588.97
2023-04-28T16:21:16.723Z,96593.63
2023-04-28T16:23:43.086Z,96600.00
2023-04-28T16:26:09.366Z,96592.75
2023-04-28T16:28:35.629Z,96594.69
2023-04-28T16:31:02.113Z,96589.00
2023-04-28T16:33:28.407Z,96590.44
2023-04-28T16:35:54.695Z,96588.31
2023-04-28T16:38:20.977Z,96593.50
2023-04-28T16:40:47.245Z,96590.00
2023-04-28T16:43:13.499Z,96593.06
2023-04-28T16:45:39.800Z,96585.56
2023-04-28T16:48:06.104Z,96590.81
2023-04-28T16:50:32.421Z,96587.16
2023-04-28T16:52:58.684Z,96585.28
2023-04-28T16:55:24.953Z,96590.09
2023-04-28T16:57:51.251Z,96581.50
2023-04-28T17:00:17.541Z,96589.09
2023-04-28T17:02:43.962Z,96588.16
2023-04-28T17:05:10.266Z,96590.75
2023-04-28T17:07:36.596Z,96594.28
2023-04-28T17:10:02.889Z,96582.56
2023-04-28T17:12:29.198Z,96589.81
2023-04-28T17:14:55.487Z,96590.47
2023-04-28T17:17:21.814Z,96592.28
2023-04-28T17:19:48.393Z,96590.41
2023-04-28T17:22:14.788Z,96587.88
2023-04-28T17:24:41.054Z,96591.94
2023-04-28T17:27:07.371Z,96587.00
2023-04-28T17:29:33.674Z,96589.59
2023-04-28T17:31:59.924Z,96599.41
2023-04-28T17:34:26.184Z,96595.13
2023-04-28T17:36:52.475Z,96581.25
2023-04-28T17:39:18.747Z,96588.31
2023-04-28T17:41:45.167Z,96594.28
2023-04-28T17:44:11.697Z,96585.81
2023-04-28T17:46:38.052Z,96583.94
2023-04-28T17:49:04.340Z,96587.66
2023-04-28T17:51:30.615Z,96591.84
2023-04-28T17:53:56.954Z,96589.91
2023-04-28T17:56:23.299Z,96587.69
2023-04-28T17:58:49.620Z,96586.28
2023-04-28T18:01:15.896Z,96580.50
2023-04-28T18:03:42.186Z,96578.91
2023-04-28T18:06:08.899Z,96581.94
2023-04-28T18:08:35.166Z,96581.94
2023-04-28T18:11:01.443Z,96578.44
2023-04-28T18:13:27.733Z,96574.91
2023-04-28T18:15:54.010Z,96578.09
2023-04-28T18:18:20.420Z,96568.81
2023-04-28T18:20:46.687Z,96558.56
2023-04-28T18:23:12.970Z,96551.72
2023-04-28T18:25:39.269Z,96560.38
2023-04-28T18:28:05.559Z,96553.81
2023-04-28T18:30:31.825Z,96554.81
2023-04-28T18:32:58.147Z,96557.84
2023-04-28T18:35:24.437Z,96551.00
2023-04-28T18:37:50.706Z,96555.00
2023-04-28T18:40:17.025Z,96558.03
2023-04-28T18:42:43.305Z,96559.97
2023-04-28T18:47:39.310Z,96557.53
2023-04-28T18:50:06.221Z,96560.09
2023-04-28T18:52:32.536Z,96564.09
2023-04-28T18:54:58.864Z,96553.88
2023-04-28T18:57:25.217Z,96570.19
2023-04-28T18:59:51.639Z,96573.34
2023-04-28T19:02:18.083Z,96574.75
2023-04-28T19:04:44.432Z,96576.81
2023-04-28T19:07:10.764Z,96579.31
2023-04-28T19:09:37.052Z,96583.44
2023-04-28T19:12:03.311Z,96590.81
2023-04-28T19:14:29.579Z,96590.47
2023-04-28T19:16:55.880Z,96577.53
2023-04-28T19:19:22.183Z,96579.13
2023-04-28T19:21:48.428Z,96572.91
2023-04-28T19:24:14.696Z,96583.13
2023-04-28T19:26:41.069Z,96582.03
2023-04-28T19:29:07.361Z,96591.28
2023-04-28T19:31:33.625Z,96593.19
2023-04-28T19:33:59.878Z,96588.09
2023-04-28T19:36:26.160Z,96586.47
2023-04-28T19:38:52.425Z,96587.28
2023-04-28T19:41:18.688Z,96579.94
2023-04-28T19:43:44.955Z,96574.50
2023-04-28T19:46:11.239Z,96587.91
2023-04-28T19:48:37.536Z,96597.03
2023-04-28T19:51:03.831Z,96606.28
2023-04-28T19:53:30.130Z,96622.41
2023-04-28T19:55:56.413Z,96624.63
2023-04-28T19:58:22.704Z,96632.25
2023-04-28T20:00:48.978Z,96652.19
2023-04-28T20:03:15.373Z,96696.19
2023-04-28T20:05:41.740Z,96731.84
2023-04-28T20:08:07.977Z,96757.59
2023-04-28T20:10:34.247Z,96791.88
2023-04-28T20:13:00.599Z,96816.13
2023-04-28T20:15:26.855Z,96816.19
2023-04-28T20:17:53.145Z,96812.00
2023-04-28T20:20:19.489Z,96788.66
2023-04-28T20:22:45.757Z,96803.44
2023-04-28T20:25:12.010Z,96805.50
2023-04-28T20:27:38.270Z,96816.41
2023-04-28T20:30:04.549Z,96822.97
2023-04-28T20:32:30.860Z,96816.34
2023-04-28T20:34:57.127Z,96835.94
2023-04-28T20:37:23.419Z,96845.28
2023-04-28T20:39:49.886Z,96841.19
2023-04-28T20:42:16.450Z,96830.59
2023-04-28T20:44:42.715Z,96815.19
2023-04-28T20:47:08.995Z,96800.56
2023-04-28T20:49:35.314Z,96814.09
2023-04-28T20:52:01.608Z,96812.47
2023-04-28T20:54:27.879Z,96809.84
2023-04-28T20:56:54.150Z,96808.00
2023-04-28T20:59:20.420Z,96814.50
2023-04-28T21:01:46.689Z,96798.81
2023-04-28T21:04:13.061Z,96796.91
2023-04-28T21:06:39.460Z,96795.28
2023-04-28T21:09:05.763Z,96792.09
2023-04-28T21:11:32.146Z,96783.47
2023-04-28T21:13:58.410Z,96790.75
2023-04-28T21:16:24.715Z,96782.94
2023-04-28T21:18:50.998Z,96786.66
2023-04-28T21:21:17.299Z,96791.56
2023-04-28T21:23:43.637Z,96783.75
2023-04-28T21:26:09.900Z,96781.25
2023-04-28T21:28:36.154Z,96779.38
2023-04-28T21:31:02.420Z,96765.03
2023-04-28T21:33:28.684Z,96774.75
2023-04-28T21:35:54.940Z,96781.63
2023-04-28T21:38:21.213Z,96776.81
2023-04-28T21:40:47.540Z,96767.38
2023-04-28T21:43:13.801Z,96767.13
2023-04-28T21:45:40.106Z,96756.44
2023-04-28T21:48:06.442Z,96758.91
2023-04-28T21:50:32.787Z,96753.03
2023-04-28T21:52:59.066Z,96754.41
2023-04-28T21:55:25.310Z,96752.00
2023-04-28T21:57:51.573Z,96755.41
2023-04-28T22:00:17.848Z,96759.66
2023-04-28T22:02:44.265Z,96751.16
2023-04-28T22:05:10.651Z,96758.41
2023-04-28T22:07:36.932Z,96758.13
2023-04-28T22:10:03.201Z,96755.19
2023-04-28T22:12:29.471Z,96746.28
2023-04-28T22:14:55.713Z,96747.31
2023-04-28T22:17:22.004Z,96741.41
2023-04-28T22:19:48.363Z,96740.88
2023-04-28T22:22:14.691Z,96735.47
2023-04-28T22:24:40.936Z,96741.75
2023-04-28T22:27:07.195Z,96738.13
2023-04-28T22:29:33.444Z,96738.88
2023-04-28T22:31:59.678Z,96726.16
2023-04-28T22:34:25.942Z,96728.53
2023-04-28T22:36:52.216Z,96727.94
2023-04-28T22:39:18.477Z,96735.25
2023-04-28T22:41:44.747Z,96736.41
2023-04-28T22:44:10.993Z,96731.28
2023-04-28T22:46:37.257Z,96723.97
2023-04-28T22:49:03.564Z,96701.50
2023-04-28T22:51:29.828Z,96707.41
2023-04-28T22:53:56.074Z,96711.41
2023-04-28T22:56:22.325Z,96720.84
2023-04-28T22:58:48.587Z,96721.41
2023-04-28T23:01:14.970Z,96725.44
2023-04-28T23:03:41.452Z,96711.06
2023-04-28T23:06:07.981Z,96703.47
2023-04-28T23:08:34.267Z,96715.16
2023-04-28T23:11:00.514Z,96709.44
2023-04-28T23:13:26.757Z,96714.34
2023-04-28T23:15:53.056Z,96707.84
2023-04-28T23:18:19.319Z,96707.84
2023-04-28T23:20:45.602Z,96706.53
2023-04-28T23:23:11.852Z,96706.53
2023-04-28T23:25:38.100Z,96696.00
2023-04-28T23:28:04.394Z,96692.22
2023-04-28T23:30:30.672Z,96691.41
2023-04-28T23:32:56.991Z,96699.75
2023-04-28T23:35:23.324Z,96697.84
2023-04-28T23:37:49.597Z,96692.44
2023-04-28T23:40:15.868Z,96694.50
2023-04-28T23:42:42.131Z,96688.44
2023-04-28T23:45:08.405Z,96692.84
2023-04-28T23:47:34.677Z,96688.38
2023-04-28T23:50:00.934Z,96695.78
2023-04-28T23:52:27.210Z,96685.50
2023-04-28T23:54:53.496Z,96688.22
2023-04-28T23:57:19.760Z,96680.13
2023-04-28T23:59:46.013Z,96680.06
